sensor_id;sensor_type;location;lat;lon;timestamp;P1;durP1;ratioP1;P2;durP2;ratioP2
6356;SDS011;3211;53.452;-2.264;2023-04-07T00:01:02;9.23;;;2.30;;
6356;SDS011;3211;53.452;-2.264;2023-04-07T00:03:30;10.77;;;2.73;;
6356;SDS011;3211;53.452;-2.264;2023-04-07T00:05:57;11.43;;;2.50;;
6356;SDS011;3211;53.452;-2.264;2023-04-07T00:08:25;6.67;;;2.23;;
6356;SDS011;3211;53.452;-2.264;2023-04-07T00:10:52;7.17;;;2.50;;
6356;SDS011;3211;53.452;-2.264;2023-04-07T00:13:19;10.77;;;2.70;;
6356;SDS011;3211;53.452;-2.264;2023-04-07T00:15:46;7.53;;;2.60;;
6356;SDS011;3211;53.452;-2.264;2023-04-07T00:18:15;12.77;;;3.13;;
6356;SDS011;3211;53.452;-2.264;2023-04-07T00:21:01;12.27;;;2.60;;
6356;SDS011;3211;53.452;-2.264;2023-04-07T00:23:28;10.47;;;2.57;;
6356;SDS011;3211;53.452;-2.264;2023-04-07T00:25:55;6.83;;;2.20;;
6356;SDS011;3211;53.452;-2.264;2023-04-07T00:28:25;7.00;;;3.00;;
6356;SDS011;3211;53.452;-2.264;2023-04-07T00:30:52;10.60;;;3.00;;
6356;SDS011;3211;53.452;-2.264;2023-04-07T00:33:21;10.40;;;2.50;;
6356;SDS011;3211;53.452;-2.264;2023-04-07T00:36:06;11.73;;;2.70;;
6356;SDS011;3211;53.452;-2.264;2023-04-07T00:38:34;9.50;;;3.33;;
6356;SDS011;3211;53.452;-2.264;2023-04-07T00:41:01;9.20;;;2.53;;
6356;SDS011;3211;53.452;-2.264;2023-04-07T00:43:28;9.43;;;2.87;;
6356;SDS011;3211;53.452;-2.264;2023-04-07T00:45:56;11.40;;;3.50;;
6356;SDS011;3211;53.452;-2.264;2023-04-07T00:48:28;6.47;;;2.50;;
6356;SDS011;3211;53.452;-2.264;2023-04-07T00:50:56;9.57;;;2.67;;
6356;SDS011;3211;53.452;-2.264;2023-04-07T00:53:27;13.40;;;3.00;;
6356;SDS011;3211;53.452;-2.264;2023-04-07T00:55:54;7.53;;;2.13;;
6356;SDS011;3211;53.452;-2.264;2023-04-07T00:58:25;8.80;;;3.03;;
6356;SDS011;3211;53.452;-2.264;2023-04-07T01:00:54;10.47;;;2.73;;
6356;SDS011;3211;53.452;-2.264;2023-04-07T01:03:32;6.67;;;2.33;;
6356;SDS011;3211;53.452;-2.264;2023-04-07T01:06:04;12.17;;;2.77;;
6356;SDS011;3211;53.452;-2.264;2023-04-07T01:08:37;10.33;;;2.50;;
6356;SDS011;3211;53.452;-2.264;2023-04-07T01:11:12;9.87;;;2.73;;
6356;SDS011;3211;53.452;-2.264;2023-04-07T01:13:46;6.70;;;2.37;;
6356;SDS011;3211;53.452;-2.264;2023-04-07T01:16:16;10.80;;;3.10;;
6356;SDS011;3211;53.452;-2.264;2023-04-07T01:18:50;17.60;;;2.97;;
6356;SDS011;3211;53.452;-2.264;2023-04-07T01:21:20;12.77;;;2.87;;
6356;SDS011;3211;53.452;-2.264;2023-04-07T01:24:00;10.37;;;2.80;;
6356;SDS011;3211;53.452;-2.264;2023-04-07T01:26:54;9.53;;;2.70;;
6356;SDS011;3211;53.452;-2.264;2023-04-07T01:29:32;10.10;;;3.63;;
6356;SDS011;3211;53.452;-2.264;2023-04-07T01:32:04;11.33;;;3.03;;
6356;SDS011;3211;53.452;-2.264;2023-04-07T01:34:35;9.83;;;2.90;;
6356;SDS011;3211;53.452;-2.264;2023-04-07T01:37:03;13.97;;;3.60;;
6356;SDS011;3211;53.452;-2.264;2023-04-07T01:39:35;11.43;;;2.67;;
6356;SDS011;3211;53.452;-2.264;2023-04-07T01:42:03;8.53;;;2.83;;
6356;SDS011;3211;53.452;-2.264;2023-04-07T01:44:36;13.73;;;4.00;;
6356;SDS011;3211;53.452;-2.264;2023-04-07T01:47:05;10.13;;;3.20;;
6356;SDS011;3211;53.452;-2.264;2023-04-07T01:49:35;9.60;;;2.50;;
6356;SDS011;3211;53.452;-2.264;2023-04-07T01:52:04;7.17;;;2.43;;
6356;SDS011;3211;53.452;-2.264;2023-04-07T01:54:34;6.83;;;2.30;;
6356;SDS011;3211;53.452;-2.264;2023-04-07T01:57:02;10.93;;;2.57;;
6356;SDS011;3211;53.452;-2.264;2023-04-07T01:59:32;6.30;;;2.53;;
6356;SDS011;3211;53.452;-2.264;2023-04-07T02:02:00;9.50;;;2.80;;
6356;SDS011;3211;53.452;-2.264;2023-04-07T02:04:28;10.90;;;2.90;;
6356;SDS011;3211;53.452;-2.264;2023-04-07T02:07:05;21.03;;;5.47;;
6356;SDS011;3211;53.452;-2.264;2023-04-07T02:09:34;13.33;;;4.60;;
6356;SDS011;3211;53.452;-2.264;2023-04-07T02:12:06;13.60;;;3.33;;
6356;SDS011;3211;53.452;-2.264;2023-04-07T02:14:37;8.53;;;2.87;;
6356;SDS011;3211;53.452;-2.264;2023-04-07T02:17:06;14.93;;;3.40;;
6356;SDS011;3211;53.452;-2.264;2023-04-07T02:19:33;11.37;;;3.43;;
6356;SDS011;3211;53.452;-2.264;2023-04-07T02:22:19;9.53;;;2.43;;
6356;SDS011;3211;53.452;-2.264;2023-04-07T02:24:46;10.40;;;3.10;;
6356;SDS011;3211;53.452;-2.264;2023-04-07T02:27:32;9.13;;;2.53;;
6356;SDS011;3211;53.452;-2.264;2023-04-07T02:29:59;8.70;;;3.00;;
6356;SDS011;3211;53.452;-2.264;2023-04-07T02:32:27;9.57;;;2.83;;
6356;SDS011;3211;53.452;-2.264;2023-04-07T02:34:58;6.13;;;2.47;;
6356;SDS011;3211;53.452;-2.264;2023-04-07T02:37:25;9.93;;;2.50;;
6356;SDS011;3211;53.452;-2.264;2023-04-07T02:39:56;10.63;;;3.33;;
6356;SDS011;3211;53.452;-2.264;2023-04-07T02:42:23;8.73;;;2.47;;
6356;SDS011;3211;53.452;-2.264;2023-04-07T02:44:53;11.17;;;3.50;;
6356;SDS011;3211;53.452;-2.264;2023-04-07T02:47:20;10.03;;;2.60;;
6356;SDS011;3211;53.452;-2.264;2023-04-07T02:49:49;7.77;;;2.20;;
6356;SDS011;3211;53.452;-2.264;2023-04-07T02:52:35;7.90;;;2.63;;
6356;SDS011;3211;53.452;-2.264;2023-04-07T02:55:02;15.33;;;2.63;;
6356;SDS011;3211;53.452;-2.264;2023-04-07T02:57:30;8.37;;;2.73;;
6356;SDS011;3211;53.452;-2.264;2023-04-07T02:59:59;8.23;;;3.10;;
6356;SDS011;3211;53.452;-2.264;2023-04-07T03:02:27;10.90;;;2.37;;
6356;SDS011;3211;53.452;-2.264;2023-04-07T03:04:56;14.70;;;2.80;;
6356;SDS011;3211;53.452;-2.264;2023-04-07T03:07:25;8.93;;;2.87;;
6356;SDS011;3211;53.452;-2.264;2023-04-07T03:09:52;7.27;;;2.87;;
6356;SDS011;3211;53.452;-2.264;2023-04-07T03:12:19;6.07;;;2.23;;
6356;SDS011;3211;53.452;-2.264;2023-04-07T03:14:47;10.90;;;3.10;;
6356;SDS011;3211;53.452;-2.264;2023-04-07T03:17:32;13.60;;;3.00;;
6356;SDS011;3211;53.452;-2.264;2023-04-07T03:20:02;4.03;;;2.43;;
6356;SDS011;3211;53.452;-2.264;2023-04-07T03:22:29;7.00;;;2.50;;
6356;SDS011;3211;53.452;-2.264;2023-04-07T03:24:59;13.10;;;3.23;;
6356;SDS011;3211;53.452;-2.264;2023-04-07T03:27:26;7.07;;;3.57;;
6356;SDS011;3211;53.452;-2.264;2023-04-07T03:29:56;18.13;;;3.30;;
6356;SDS011;3211;53.452;-2.264;2023-04-07T03:32:23;8.47;;;3.03;;
6356;SDS011;3211;53.452;-2.264;2023-04-07T03:34:50;12.80;;;3.20;;
6356;SDS011;3211;53.452;-2.264;2023-04-07T03:37:20;11.20;;;3.93;;
6356;SDS011;3211;53.452;-2.264;2023-04-07T03:39:46;6.20;;;2.90;;
6356;SDS011;3211;53.452;-2.264;2023-04-07T03:42:32;13.43;;;3.30;;
6356;SDS011;3211;53.452;-2.264;2023-04-07T03:45:00;9.97;;;2.90;;
6356;SDS011;3211;53.452;-2.264;2023-04-07T03:47:27;6.50;;;2.90;;
6356;SDS011;3211;53.452;-2.264;2023-04-07T03:49:58;5.40;;;3.03;;
6356;SDS011;3211;53.452;-2.264;2023-04-07T03:52:27;7.90;;;2.70;;
6356;SDS011;3211;53.452;-2.264;2023-04-07T03:54:57;9.90;;;3.67;;
6356;SDS011;3211;53.452;-2.264;2023-04-07T03:57:24;15.23;;;3.57;;
6356;SDS011;3211;53.452;-2.264;2023-04-07T03:59:51;12.87;;;3.60;;
6356;SDS011;3211;53.452;-2.264;2023-04-07T04:02:19;6.77;;;2.90;;
6356;SDS011;3211;53.452;-2.264;2023-04-07T04:04:46;8.30;;;2.97;;
6356;SDS011;3211;53.452;-2.264;2023-04-07T04:07:34;12.80;;;3.43;;
6356;SDS011;3211;53.452;-2.264;2023-04-07T04:10:02;7.17;;;3.13;;
6356;SDS011;3211;53.452;-2.264;2023-04-07T04:12:29;8.10;;;3.10;;
6356;SDS011;3211;53.452;-2.264;2023-04-07T04:14:57;8.07;;;3.07;;
6356;SDS011;3211;53.452;-2.264;2023-04-07T04:17:24;9.97;;;3.30;;
6356;SDS011;3211;53.452;-2.264;2023-04-07T04:19:55;6.57;;;2.57;;
6356;SDS011;3211;53.452;-2.264;2023-04-07T04:22:22;7.67;;;2.90;;
6356;SDS011;3211;53.452;-2.264;2023-04-07T04:24:50;8.63;;;2.80;;
6356;SDS011;3211;53.452;-2.264;2023-04-07T04:27:18;7.67;;;2.97;;
6356;SDS011;3211;53.452;-2.264;2023-04-07T04:29:45;8.17;;;3.03;;
6356;SDS011;3211;53.452;-2.264;2023-04-07T04:32:31;11.53;;;3.27;;
6356;SDS011;3211;53.452;-2.264;2023-04-07T04:34:58;5.90;;;2.97;;
6356;SDS011;3211;53.452;-2.264;2023-04-07T04:37:25;7.90;;;3.17;;
6356;SDS011;3211;53.452;-2.264;2023-04-07T04:39:56;9.50;;;3.40;;
6356;SDS011;3211;53.452;-2.264;2023-04-07T04:42:23;7.80;;;2.90;;
6356;SDS011;3211;53.452;-2.264;2023-04-07T04:44:52;16.53;;;4.33;;
6356;SDS011;3211;53.452;-2.264;2023-04-07T04:47:19;10.30;;;4.00;;
6356;SDS011;3211;53.452;-2.264;2023-04-07T04:49:49;10.73;;;3.50;;
6356;SDS011;3211;53.452;-2.264;2023-04-07T04:52:16;9.63;;;3.87;;
6356;SDS011;3211;53.452;-2.264;2023-04-07T04:54:43;7.30;;;2.93;;
6356;SDS011;3211;53.452;-2.264;2023-04-07T04:57:31;13.87;;;3.23;;
6356;SDS011;3211;53.452;-2.264;2023-04-07T05:00:00;5.97;;;3.27;;
6356;SDS011;3211;53.452;-2.264;2023-04-07T05:02:28;8.20;;;3.17;;
6356;SDS011;3211;53.452;-2.264;2023-04-07T05:04:57;8.10;;;3.30;;
6356;SDS011;3211;53.452;-2.264;2023-04-07T05:07:24;12.50;;;3.17;;
6356;SDS011;3211;53.452;-2.264;2023-04-07T05:09:52;6.27;;;2.77;;
6356;SDS011;3211;53.452;-2.264;2023-04-07T05:12:18;10.00;;;3.57;;
6356;SDS011;3211;53.452;-2.264;2023-04-07T05:14:47;10.50;;;3.17;;
6356;SDS011;3211;53.452;-2.264;2023-04-07T05:17:15;14.07;;;3.50;;
6356;SDS011;3211;53.452;-2.264;2023-04-07T05:19:42;6.50;;;3.03;;
6356;SDS011;3211;53.452;-2.264;2023-04-07T05:22:28;5.67;;;2.63;;
6356;SDS011;3211;53.452;-2.264;2023-04-07T05:24:56;12.10;;;3.53;;
6356;SDS011;3211;53.452;-2.264;2023-04-07T05:27:23;7.53;;;3.20;;
6356;SDS011;3211;53.452;-2.264;2023-04-07T05:29:57;6.90;;;2.93;;
6356;SDS011;3211;53.452;-2.264;2023-04-07T05:32:25;6.73;;;3.73;;
6356;SDS011;3211;53.452;-2.264;2023-04-07T05:34:53;11.33;;;3.53;;
6356;SDS011;3211;53.452;-2.264;2023-04-07T05:37:20;6.50;;;3.30;;
6356;SDS011;3211;53.452;-2.264;2023-04-07T05:39:51;9.47;;;3.40;;
6356;SDS011;3211;53.452;-2.264;2023-04-07T05:42:18;12.10;;;3.87;;
6356;SDS011;3211;53.452;-2.264;2023-04-07T05:44:45;8.40;;;3.00;;
6356;SDS011;3211;53.452;-2.264;2023-04-07T05:47:14;6.17;;;3.00;;
6356;SDS011;3211;53.452;-2.264;2023-04-07T05:49:42;14.00;;;4.10;;
6356;SDS011;3211;53.452;-2.264;2023-04-07T05:52:30;9.63;;;3.40;;
6356;SDS011;3211;53.452;-2.264;2023-04-07T05:54:57;11.27;;;3.53;;
6356;SDS011;3211;53.452;-2.264;2023-04-07T05:57:25;5.20;;;2.90;;
6356;SDS011;3211;53.452;-2.264;2023-04-07T05:59:56;12.87;;;4.17;;
6356;SDS011;3211;53.452;-2.264;2023-04-07T06:02:25;10.63;;;3.70;;
6356;SDS011;3211;53.452;-2.264;2023-04-07T06:04:53;5.50;;;3.50;;
6356;SDS011;3211;53.452;-2.264;2023-04-07T06:07:20;10.80;;;4.00;;
6356;SDS011;3211;53.452;-2.264;2023-04-07T06:09:49;7.03;;;3.27;;
6356;SDS011;3211;53.452;-2.264;2023-04-07T06:12:16;5.10;;;3.30;;
6356;SDS011;3211;53.452;-2.264;2023-04-07T06:14:45;10.30;;;3.90;;
6356;SDS011;3211;53.452;-2.264;2023-04-07T06:17:16;10.93;;;3.67;;
6356;SDS011;3211;53.452;-2.264;2023-04-07T06:19:45;11.83;;;4.00;;
6356;SDS011;3211;53.452;-2.264;2023-04-07T06:22:12;10.00;;;4.33;;
6356;SDS011;3211;53.452;-2.264;2023-04-07T06:24:40;8.20;;;3.17;;
6356;SDS011;3211;53.452;-2.264;2023-04-07T06:27:26;10.77;;;3.97;;
6356;SDS011;3211;53.452;-2.264;2023-04-07T06:29:54;17.50;;;4.50;;
6356;SDS011;3211;53.452;-2.264;2023-04-07T06:32:22;10.57;;;3.90;;
6356;SDS011;3211;53.452;-2.264;2023-04-07T06:34:52;10.10;;;3.53;;
6356;SDS011;3211;53.452;-2.264;2023-04-07T06:37:19;10.40;;;3.40;;
6356;SDS011;3211;53.452;-2.264;2023-04-07T06:39:51;11.70;;;4.73;;
6356;SDS011;3211;53.452;-2.264;2023-04-07T06:42:18;8.17;;;3.90;;
6356;SDS011;3211;53.452;-2.264;2023-04-07T06:44:45;15.63;;;4.17;;
6356;SDS011;3211;53.452;-2.264;2023-04-07T06:47:12;8.37;;;3.50;;
6356;SDS011;3211;53.452;-2.264;2023-04-07T06:49:39;9.83;;;4.13;;
6356;SDS011;3211;53.452;-2.264;2023-04-07T06:52:27;14.17;;;4.50;;
6356;SDS011;3211;53.452;-2.264;2023-04-07T06:54:55;13.07;;;3.63;;
6356;SDS011;3211;53.452;-2.264;2023-04-07T06:57:23;9.97;;;3.63;;
6356;SDS011;3211;53.452;-2.264;2023-04-07T06:59:54;13.23;;;5.10;;
6356;SDS011;3211;53.452;-2.264;2023-04-07T07:02:21;8.83;;;3.70;;
6356;SDS011;3211;53.452;-2.264;2023-04-07T07:04:51;14.23;;;3.87;;
6356;SDS011;3211;53.452;-2.264;2023-04-07T07:07:18;8.83;;;4.10;;
6356;SDS011;3211;53.452;-2.264;2023-04-07T07:09:48;12.17;;;5.10;;
6356;SDS011;3211;53.452;-2.264;2023-04-07T07:12:15;18.33;;;3.87;;
6356;SDS011;3211;53.452;-2.264;2023-04-07T07:14:43;14.87;;;4.50;;
6356;SDS011;3211;53.452;-2.264;2023-04-07T07:17:10;7.40;;;3.60;;
6356;SDS011;3211;53.452;-2.264;2023-04-07T07:19:37;15.03;;;3.70;;
6356;SDS011;3211;53.452;-2.264;2023-04-07T07:22:23;15.20;;;4.17;;
6356;SDS011;3211;53.452;-2.264;2023-04-07T07:24:52;9.47;;;3.53;;
6356;SDS011;3211;53.452;-2.264;2023-04-07T07:27:19;12.50;;;4.53;;
6356;SDS011;3211;53.452;-2.264;2023-04-07T07:29:49;14.60;;;4.87;;
6356;SDS011;3211;53.452;-2.264;2023-04-07T07:32:16;9.93;;;4.60;;
6356;SDS011;3211;53.452;-2.264;2023-04-07T07:34:46;8.20;;;3.60;;
6356;SDS011;3211;53.452;-2.264;2023-04-07T07:37:14;8.33;;;4.10;;
6356;SDS011;3211;53.452;-2.264;2023-04-07T07:39:44;8.80;;;4.13;;
6356;SDS011;3211;53.452;-2.264;2023-04-07T07:42:14;12.97;;;4.70;;
6356;SDS011;3211;53.452;-2.264;2023-04-07T07:44:42;9.13;;;3.70;;
6356;SDS011;3211;53.452;-2.264;2023-04-07T07:47:10;8.40;;;4.20;;
6356;SDS011;3211;53.452;-2.264;2023-04-07T07:49:38;17.53;;;4.50;;
6356;SDS011;3211;53.452;-2.264;2023-04-07T07:52:24;11.07;;;4.10;;
6356;SDS011;3211;53.452;-2.264;2023-04-07T07:54:52;13.33;;;4.43;;
6356;SDS011;3211;53.452;-2.264;2023-04-07T07:57:20;9.70;;;3.80;;
6356;SDS011;3211;53.452;-2.264;2023-04-07T07:59:50;10.20;;;4.83;;
6356;SDS011;3211;53.452;-2.264;2023-04-07T08:02:17;12.30;;;3.80;;
6356;SDS011;3211;53.452;-2.264;2023-04-07T08:04:44;19.30;;;4.77;;
6356;SDS011;3211;53.452;-2.264;2023-04-07T08:07:12;12.73;;;4.30;;
6356;SDS011;3211;53.452;-2.264;2023-04-07T08:09:39;19.23;;;4.23;;
6356;SDS011;3211;53.452;-2.264;2023-04-07T08:12:06;14.33;;;3.87;;
6356;SDS011;3211;53.452;-2.264;2023-04-07T08:14:34;10.70;;;4.57;;
6356;SDS011;3211;53.452;-2.264;2023-04-07T08:17:20;8.90;;;4.70;;
6356;SDS011;3211;53.452;-2.264;2023-04-07T08:19:47;11.63;;;5.03;;
6356;SDS011;3211;53.452;-2.264;2023-04-07T08:22:14;20.70;;;5.50;;
6356;SDS011;3211;53.452;-2.264;2023-04-07T08:24:43;15.50;;;4.47;;
6356;SDS011;3211;53.452;-2.264;2023-04-07T08:27:11;13.83;;;7.10;;
6356;SDS011;3211;53.452;-2.264;2023-04-07T08:29:42;11.27;;;4.10;;
6356;SDS011;3211;53.452;-2.264;2023-04-07T08:32:10;9.70;;;4.60;;
6356;SDS011;3211;53.452;-2.264;2023-04-07T08:34:39;11.63;;;4.70;;
6356;SDS011;3211;53.452;-2.264;2023-04-07T08:37:07;7.63;;;3.60;;
6356;SDS011;3211;53.452;-2.264;2023-04-07T08:39:34;11.00;;;5.03;;
6356;SDS011;3211;53.452;-2.264;2023-04-07T08:42:01;13.63;;;4.70;;
6356;SDS011;3211;53.452;-2.264;2023-04-07T08:44:32;13.80;;;4.10;;
6356;SDS011;3211;53.452;-2.264;2023-04-07T08:47:05;7.77;;;4.47;;
6356;SDS011;3211;53.452;-2.264;2023-04-07T08:49:36;9.63;;;3.87;;
6356;SDS011;3211;53.452;-2.264;2023-04-07T08:52:06;8.90;;;4.60;;
6356;SDS011;3211;53.452;-2.264;2023-04-07T08:54:38;8.00;;;3.90;;
6356;SDS011;3211;53.452;-2.264;2023-04-07T08:57:06;7.67;;;3.80;;
6356;SDS011;3211;53.452;-2.264;2023-04-07T08:59:36;6.87;;;3.50;;
6356;SDS011;3211;53.452;-2.264;2023-04-07T09:02:09;6.53;;;3.73;;
6356;SDS011;3211;53.452;-2.264;2023-04-07T09:04:36;9.80;;;4.90;;
6356;SDS011;3211;53.452;-2.264;2023-04-07T09:07:03;9.50;;;3.70;;
6356;SDS011;3211;53.452;-2.264;2023-04-07T09:09:31;7.20;;;4.30;;
6356;SDS011;3211;53.452;-2.264;2023-04-07T09:12:00;12.60;;;4.40;;
6356;SDS011;3211;53.452;-2.264;2023-04-07T09:14:27;13.53;;;3.80;;
6356;SDS011;3211;53.452;-2.264;2023-04-07T09:16:55;6.97;;;3.47;;
6356;SDS011;3211;53.452;-2.264;2023-04-07T09:19:29;9.10;;;3.80;;
6356;SDS011;3211;53.452;-2.264;2023-04-07T09:21:58;14.73;;;4.50;;
6356;SDS011;3211;53.452;-2.264;2023-04-07T09:24:25;10.87;;;4.13;;
6356;SDS011;3211;53.452;-2.264;2023-04-07T09:27:08;15.90;;;3.83;;
6356;SDS011;3211;53.452;-2.264;2023-04-07T09:29:42;5.27;;;3.63;;
6356;SDS011;3211;53.452;-2.264;2023-04-07T09:32:10;10.20;;;3.80;;
6356;SDS011;3211;53.452;-2.264;2023-04-07T09:34:42;7.93;;;3.60;;
6356;SDS011;3211;53.452;-2.264;2023-04-07T09:37:10;8.50;;;3.17;;
6356;SDS011;3211;53.452;-2.264;2023-04-07T09:39:48;7.23;;;2.47;;
6356;SDS011;3211;53.452;-2.264;2023-04-07T09:42:43;5.47;;;3.23;;
6356;SDS011;3211;53.452;-2.264;2023-04-07T09:45:10;4.70;;;3.10;;
6356;SDS011;3211;53.452;-2.264;2023-04-07T09:47:57;5.23;;;2.90;;
6356;SDS011;3211;53.452;-2.264;2023-04-07T09:50:32;8.73;;;2.70;;
6356;SDS011;3211;53.452;-2.264;2023-04-07T09:53:01;10.00;;;3.10;;
6356;SDS011;3211;53.452;-2.264;2023-04-07T09:55:29;9.60;;;2.43;;
6356;SDS011;3211;53.452;-2.264;2023-04-07T09:57:57;3.23;;;2.27;;
6356;SDS011;3211;53.452;-2.264;2023-04-07T10:00:25;7.63;;;2.47;;
6356;SDS011;3211;53.452;-2.264;2023-04-07T10:02:52;7.93;;;3.00;;
6356;SDS011;3211;53.452;-2.264;2023-04-07T10:05:23;5.67;;;2.60;;
6356;SDS011;3211;53.452;-2.264;2023-04-07T10:07:54;5.80;;;3.10;;
6356;SDS011;3211;53.452;-2.264;2023-04-07T10:10:22;5.93;;;2.80;;
6356;SDS011;3211;53.452;-2.264;2023-04-07T10:12:50;7.53;;;2.80;;
6356;SDS011;3211;53.452;-2.264;2023-04-07T10:15:23;8.10;;;2.97;;
6356;SDS011;3211;53.452;-2.264;2023-04-07T10:17:51;6.57;;;2.90;;
6356;SDS011;3211;53.452;-2.264;2023-04-07T10:20:23;3.97;;;2.33;;
6356;SDS011;3211;53.452;-2.264;2023-04-07T10:22:54;3.47;;;2.27;;
6356;SDS011;3211;53.452;-2.264;2023-04-07T10:25:27;4.33;;;1.90;;
6356;SDS011;3211;53.452;-2.264;2023-04-07T10:28:02;4.50;;;2.33;;
6356;SDS011;3211;53.452;-2.264;2023-04-07T10:30:32;3.37;;;2.17;;
6356;SDS011;3211;53.452;-2.264;2023-04-07T10:33:00;6.50;;;2.27;;
6356;SDS011;3211;53.452;-2.264;2023-04-07T10:36:01;6.17;;;2.00;;
6356;SDS011;3211;53.452;-2.264;2023-04-07T10:38:32;4.73;;;2.00;;
6356;SDS011;3211;53.452;-2.264;2023-04-07T10:40:59;5.27;;;2.53;;
6356;SDS011;3211;53.452;-2.264;2023-04-07T10:44:06;4.13;;;2.00;;
6356;SDS011;3211;53.452;-2.264;2023-04-07T10:52:45;6.10;;;2.00;;
6356;SDS011;3211;53.452;-2.264;2023-04-07T10:55:34;6.60;;;2.20;;
6356;SDS011;3211;53.452;-2.264;2023-04-07T10:58:12;5.67;;;2.20;;
6356;SDS011;3211;53.452;-2.264;2023-04-07T11:01:18;4.73;;;1.80;;
6356;SDS011;3211;53.452;-2.264;2023-04-07T11:03:55;2.90;;;1.60;;
6356;SDS011;3211;53.452;-2.264;2023-04-07T11:06:45;3.47;;;1.57;;
6356;SDS011;3211;53.452;-2.264;2023-04-07T11:09:17;3.23;;;1.50;;
6356;SDS011;3211;53.452;-2.264;2023-04-07T11:11:48;7.63;;;2.00;;
6356;SDS011;3211;53.452;-2.264;2023-04-07T11:14:24;2.33;;;1.63;;
6356;SDS011;3211;53.452;-2.264;2023-04-07T11:16:52;5.17;;;1.77;;
6356;SDS011;3211;53.452;-2.264;2023-04-07T11:19:20;4.13;;;2.13;;
6356;SDS011;3211;53.452;-2.264;2023-04-07T11:21:48;3.53;;;1.70;;
6356;SDS011;3211;53.452;-2.264;2023-04-07T11:24:30;3.93;;;1.70;;
6356;SDS011;3211;53.452;-2.264;2023-04-07T11:27:00;2.40;;;1.40;;
6356;SDS011;3211;53.452;-2.264;2023-04-07T11:29:28;4.27;;;1.30;;
6356;SDS011;3211;53.452;-2.264;2023-04-07T11:31:57;2.90;;;1.60;;
6356;SDS011;3211;53.452;-2.264;2023-04-07T11:34:28;4.37;;;1.57;;
6356;SDS011;3211;53.452;-2.264;2023-04-07T11:36:56;2.00;;;1.30;;
6356;SDS011;3211;53.452;-2.264;2023-04-07T11:39:26;2.80;;;1.50;;
6356;SDS011;3211;53.452;-2.264;2023-04-07T11:41:55;6.73;;;1.70;;
6356;SDS011;3211;53.452;-2.264;2023-04-07T11:44:26;2.80;;;1.90;;
6356;SDS011;3211;53.452;-2.264;2023-04-07T11:46:53;3.53;;;1.60;;
6356;SDS011;3211;53.452;-2.264;2023-04-07T11:49:25;2.23;;;1.23;;
6356;SDS011;3211;53.452;-2.264;2023-04-07T11:51:57;3.03;;;1.73;;
6356;SDS011;3211;53.452;-2.264;2023-04-07T11:54:25;1.90;;;1.40;;
6356;SDS011;3211;53.452;-2.264;2023-04-07T11:56:53;2.97;;;1.40;;
6356;SDS011;3211;53.452;-2.264;2023-04-07T11:59:24;2.00;;;1.30;;
6356;SDS011;3211;53.452;-2.264;2023-04-07T12:01:54;3.30;;;1.57;;
6356;SDS011;3211;53.452;-2.264;2023-04-07T12:04:21;5.63;;;1.50;;
6356;SDS011;3211;53.452;-2.264;2023-04-07T12:06:49;8.00;;;1.77;;
6356;SDS011;3211;53.452;-2.264;2023-04-07T12:09:26;3.30;;;1.47;;
6356;SDS011;3211;53.452;-2.264;2023-04-07T12:11:56;3.63;;;1.93;;
6356;SDS011;3211;53.452;-2.264;2023-04-07T12:14:26;4.10;;;1.60;;
6356;SDS011;3211;53.452;-2.264;2023-04-07T12:16:54;5.50;;;2.27;;
6356;SDS011;3211;53.452;-2.264;2023-04-07T12:19:25;6.43;;;1.70;;
6356;SDS011;3211;53.452;-2.264;2023-04-07T12:21:54;4.10;;;1.50;;
6356;SDS011;3211;53.452;-2.264;2023-04-07T12:24:22;2.50;;;1.53;;
6356;SDS011;3211;53.452;-2.264;2023-04-07T12:26:49;1.70;;;1.53;;
6356;SDS011;3211;53.452;-2.264;2023-04-07T12:29:20;5.63;;;1.53;;
6356;SDS011;3211;53.452;-2.264;2023-04-07T12:31:50;3.70;;;1.57;;
6356;SDS011;3211;53.452;-2.264;2023-04-07T12:34:17;1.80;;;1.27;;
6356;SDS011;3211;53.452;-2.264;2023-04-07T12:36:44;2.60;;;1.30;;
6356;SDS011;3211;53.452;-2.264;2023-04-07T12:39:15;1.93;;;1.23;;
6356;SDS011;3211;53.452;-2.264;2023-04-07T12:41:42;1.30;;;1.20;;
6356;SDS011;3211;53.452;-2.264;2023-04-07T12:44:11;1.70;;;1.30;;
6356;SDS011;3211;53.452;-2.264;2023-04-07T12:46:38;3.10;;;1.50;;
6356;SDS011;3211;53.452;-2.264;2023-04-07T12:49:07;2.53;;;1.37;;
6356;SDS011;3211;53.452;-2.264;2023-04-07T12:51:53;2.60;;;1.40;;
6356;SDS011;3211;53.452;-2.264;2023-04-07T12:54:21;1.40;;;1.10;;
6356;SDS011;3211;53.452;-2.264;2023-04-07T12:56:48;1.43;;;1.30;;
6356;SDS011;3211;53.452;-2.264;2023-04-07T12:59:18;3.20;;;1.90;;
6356;SDS011;3211;53.452;-2.264;2023-04-07T13:01:46;4.47;;;1.60;;
6356;SDS011;3211;53.452;-2.264;2023-04-07T13:04:15;2.40;;;1.20;;
6356;SDS011;3211;53.452;-2.264;2023-04-07T13:06:42;2.07;;;1.23;;
6356;SDS011;3211;53.452;-2.264;2023-04-07T13:09:09;1.50;;;1.20;;
6356;SDS011;3211;53.452;-2.264;2023-04-07T13:11:36;2.50;;;1.47;;
6356;SDS011;3211;53.452;-2.264;2023-04-07T13:14:04;3.07;;;1.10;;
6356;SDS011;3211;53.452;-2.264;2023-04-07T13:16:50;2.13;;;1.20;;
6356;SDS011;3211;53.452;-2.264;2023-04-07T13:19:18;2.57;;;1.47;;
6356;SDS011;3211;53.452;-2.264;2023-04-07T13:21:46;1.43;;;1.13;;
6356;SDS011;3211;53.452;-2.264;2023-04-07T13:24:16;2.10;;;1.33;;
6356;SDS011;3211;53.452;-2.264;2023-04-07T13:26:43;2.10;;;1.67;;
6356;SDS011;3211;53.452;-2.264;2023-04-07T13:29:13;1.63;;;1.30;;
6356;SDS011;3211;53.452;-2.264;2023-04-07T13:31:40;1.20;;;1.00;;
6356;SDS011;3211;53.452;-2.264;2023-04-07T13:34:10;3.40;;;1.40;;
6356;SDS011;3211;53.452;-2.264;2023-04-07T13:36:38;3.23;;;1.50;;
6356;SDS011;3211;53.452;-2.264;2023-04-07T13:39:08;2.47;;;1.20;;
6356;SDS011;3211;53.452;-2.264;2023-04-07T13:41:37;2.43;;;1.30;;
6356;SDS011;3211;53.452;-2.264;2023-04-07T13:44:07;1.20;;;1.10;;
6356;SDS011;3211;53.452;-2.264;2023-04-07T13:46:34;2.17;;;1.20;;
6356;SDS011;3211;53.452;-2.264;2023-04-07T13:49:01;2.40;;;1.10;;
6356;SDS011;3211;53.452;-2.264;2023-04-07T13:51:28;1.77;;;1.20;;
6356;SDS011;3211;53.452;-2.264;2023-04-07T13:53:56;1.83;;;1.30;;
6356;SDS011;3211;53.452;-2.264;2023-04-07T13:56:43;4.40;;;1.30;;
6356;SDS011;3211;53.452;-2.264;2023-04-07T13:59:12;1.73;;;1.20;;
6356;SDS011;3211;53.452;-2.264;2023-04-07T14:01:39;1.70;;;1.20;;
6356;SDS011;3211;53.452;-2.264;2023-04-07T14:04:06;2.10;;;1.40;;
6356;SDS011;3211;53.452;-2.264;2023-04-07T14:06:34;1.50;;;1.10;;
6356;SDS011;3211;53.452;-2.264;2023-04-07T14:09:03;2.20;;;1.30;;
6356;SDS011;3211;53.452;-2.264;2023-04-07T14:11:49;2.27;;;1.30;;
6356;SDS011;3211;53.452;-2.264;2023-04-07T14:14:16;1.83;;;1.10;;
6356;SDS011;3211;53.452;-2.264;2023-04-07T14:16:43;1.30;;;1.10;;
6356;SDS011;3211;53.452;-2.264;2023-04-07T14:19:11;2.23;;;1.27;;
6356;SDS011;3211;53.452;-2.264;2023-04-07T14:21:38;2.57;;;1.20;;
6356;SDS011;3211;53.452;-2.264;2023-04-07T14:24:09;2.87;;;1.37;;
6356;SDS011;3211;53.452;-2.264;2023-04-07T14:26:37;2.37;;;1.20;;
6356;SDS011;3211;53.452;-2.264;2023-04-07T14:29:07;1.30;;;1.10;;
6356;SDS011;3211;53.452;-2.264;2023-04-07T14:31:35;1.97;;;1.20;;
6356;SDS011;3211;53.452;-2.264;2023-04-07T14:34:05;1.30;;;1.10;;
6356;SDS011;3211;53.452;-2.264;2023-04-07T14:36:32;2.27;;;1.30;;
6356;SDS011;3211;53.452;-2.264;2023-04-07T14:39:02;1.70;;;1.20;;
6356;SDS011;3211;53.452;-2.264;2023-04-07T14:41:31;4.00;;;1.40;;
6356;SDS011;3211;53.452;-2.264;2023-04-07T14:44:00;1.67;;;1.40;;
6356;SDS011;3211;53.452;-2.264;2023-04-07T14:46:28;1.33;;;1.10;;
6356;SDS011;3211;53.452;-2.264;2023-04-07T14:48:58;1.47;;;1.10;;
6356;SDS011;3211;53.452;-2.264;2023-04-07T14:51:25;3.20;;;1.60;;
6356;SDS011;3211;53.452;-2.264;2023-04-07T14:53:55;1.70;;;1.20;;
6356;SDS011;3211;53.452;-2.264;2023-04-07T14:56:25;2.40;;;1.63;;
6356;SDS011;3211;53.452;-2.264;2023-04-07T14:58:56;1.80;;;1.23;;
6356;SDS011;3211;53.452;-2.264;2023-04-07T15:01:23;2.17;;;1.20;;
6356;SDS011;3211;53.452;-2.264;2023-04-07T15:03:50;1.73;;;1.30;;
6356;SDS011;3211;53.452;-2.264;2023-04-07T15:06:17;1.63;;;1.23;;
6356;SDS011;3211;53.452;-2.264;2023-04-07T15:08:45;2.30;;;1.40;;
6356;SDS011;3211;53.452;-2.264;2023-04-07T15:11:31;3.70;;;1.30;;
6356;SDS011;3211;53.452;-2.264;2023-04-07T15:14:00;2.33;;;1.20;;
6356;SDS011;3211;53.452;-2.264;2023-04-07T15:16:28;1.67;;;1.30;;
6356;SDS011;3211;53.452;-2.264;2023-04-07T15:18:58;3.00;;;1.40;;
6356;SDS011;3211;53.452;-2.264;2023-04-07T15:21:25;2.37;;;1.50;;
6356;SDS011;3211;53.452;-2.264;2023-04-07T15:23:55;1.77;;;1.03;;